Terminal Aerodrome Forecast
Issued by NWS

Home | Current Version | Previous Version | Text Only | Print | Product List | Glossary On
Versions: 1 2 3 4 5 6 7 8 9 10 11 12 13
000
FTUS45 KGJT 301720
TAFDRO
TAF
KDRO 301720Z 3018/3118 00000KT P6SM SKC
     FM302000 22006KT P6SM SKC
     FM310200 02004KT P6SM FEW250
     FM311200 00000KT P6SM SCT250=

USA.gov is the U.S. government's official web portal to all federal, state and local government web resources and services.